sensor_id;sensor_type;location;lat;lon;timestamp;temperature;humidity
2441;DHT22;1231;53.988;9.470;2022-10-16T00:02:20;14.40;88.90
2441;DHT22;1231;53.988;9.470;2022-10-16T00:04:51;14.40;88.90
2441;DHT22;1231;53.988;9.470;2022-10-16T00:07:21;14.40;88.90
2441;DHT22;1231;53.988;9.470;2022-10-16T00:09:52;14.40;88.90
2441;DHT22;1231;53.988;9.470;2022-10-16T00:12:22;14.40;88.90
2441;DHT22;1231;53.988;9.470;2022-10-16T00:14:53;14.40;88.90
2441;DHT22;1231;53.988;9.470;2022-10-16T00:17:24;14.40;88.90
2441;DHT22;1231;53.988;9.470;2022-10-16T00:19:54;14.50;88.90
2441;DHT22;1231;53.988;9.470;2022-10-16T00:22:26;14.40;88.90
2441;DHT22;1231;53.988;9.470;2022-10-16T00:24:56;14.40;88.90
2441;DHT22;1231;53.988;9.470;2022-10-16T00:27:27;14.40;88.90
2441;DHT22;1231;53.988;9.470;2022-10-16T00:29:58;14.40;88.90
2441;DHT22;1231;53.988;9.470;2022-10-16T00:32:28;14.40;88.90
2441;DHT22;1231;53.988;9.470;2022-10-16T00:34:59;14.40;88.90
2441;DHT22;1231;53.988;9.470;2022-10-16T00:37:30;14.40;88.90
2441;DHT22;1231;53.988;9.470;2022-10-16T00:40:01;14.40;88.90
2441;DHT22;1231;53.988;9.470;2022-10-16T00:42:31;14.40;88.90
2441;DHT22;1231;53.988;9.470;2022-10-16T00:45:02;14.40;88.90
2441;DHT22;1231;53.988;9.470;2022-10-16T00:47:39;14.40;88.90
2441;DHT22;1231;53.988;9.470;2022-10-16T00:50:30;14.40;88.90
2441;DHT22;1231;53.988;9.470;2022-10-16T00:53:01;14.40;89.10
2441;DHT22;1231;53.988;9.470;2022-10-16T00:55:33;14.40;89.10
2441;DHT22;1231;53.988;9.470;2022-10-16T00:58:03;14.40;89.20
2441;DHT22;1231;53.988;9.470;2022-10-16T01:00:34;14.40;89.10
2441;DHT22;1231;53.988;9.470;2022-10-16T01:03:29;14.40;89.10
2441;DHT22;1231;53.988;9.470;2022-10-16T01:09:14;14.40;89.10
2441;DHT22;1231;53.988;9.470;2022-10-16T01:14:58;14.40;89.10
2441;DHT22;1231;53.988;9.470;2022-10-16T01:17:33;14.40;89.10
2441;DHT22;1231;53.988;9.470;2022-10-16T01:22:48;14.40;89.20
2441;DHT22;1231;53.988;9.470;2022-10-16T01:25:39;14.40;89.20
2441;DHT22;1231;53.988;9.470;2022-10-16T01:28:15;14.40;89.20
2441;DHT22;1231;53.988;9.470;2022-10-16T01:30:50;14.40;89.20
2441;DHT22;1231;53.988;9.470;2022-10-16T01:33:48;14.40;89.20
2441;DHT22;1231;53.988;9.470;2022-10-16T01:36:22;14.40;89.10
2441;DHT22;1231;53.988;9.470;2022-10-16T01:39:00;14.40;89.10
2441;DHT22;1231;53.988;9.470;2022-10-16T01:41:34;14.40;89.10
2441;DHT22;1231;53.988;9.470;2022-10-16T01:44:10;14.40;89.10
2441;DHT22;1231;53.988;9.470;2022-10-16T01:46:44;14.40;89.10
2441;DHT22;1231;53.988;9.470;2022-10-16T01:49:17;14.40;89.10
2441;DHT22;1231;53.988;9.470;2022-10-16T01:51:53;14.40;88.90
2441;DHT22;1231;53.988;9.470;2022-10-16T01:54:27;14.40;88.90
2441;DHT22;1231;53.988;9.470;2022-10-16T01:57:00;14.40;88.90
2441;DHT22;1231;53.988;9.470;2022-10-16T01:59:33;14.40;88.90
2441;DHT22;1231;53.988;9.470;2022-10-16T02:02:08;14.40;88.90
2441;DHT22;1231;53.988;9.470;2022-10-16T02:04:45;14.40;88.90
2441;DHT22;1231;53.988;9.470;2022-10-16T02:07:16;14.40;88.90
2441;DHT22;1231;53.988;9.470;2022-10-16T02:09:47;14.40;88.90
2441;DHT22;1231;53.988;9.470;2022-10-16T02:12:29;14.40;88.90
2441;DHT22;1231;53.988;9.470;2022-10-16T02:15:01;14.40;88.90
2441;DHT22;1231;53.988;9.470;2022-10-16T02:17:32;14.40;88.90
2441;DHT22;1231;53.988;9.470;2022-10-16T02:20:03;14.40;88.90
2441;DHT22;1231;53.988;9.470;2022-10-16T02:22:41;14.40;88.90
2441;DHT22;1231;53.988;9.470;2022-10-16T02:25:30;14.40;88.70
2441;DHT22;1231;53.988;9.470;2022-10-16T02:28:08;14.40;88.70
2441;DHT22;1231;53.988;9.470;2022-10-16T02:30:43;14.40;88.60
2441;DHT22;1231;53.988;9.470;2022-10-16T02:33:16;14.40;88.60
2441;DHT22;1231;53.988;9.470;2022-10-16T02:35:48;14.40;88.70
2441;DHT22;1231;53.988;9.470;2022-10-16T02:38:20;14.30;88.70
2441;DHT22;1231;53.988;9.470;2022-10-16T02:40:51;14.30;88.60
2441;DHT22;1231;53.988;9.470;2022-10-16T02:43:22;14.30;88.60
2441;DHT22;1231;53.988;9.470;2022-10-16T02:45:53;14.30;88.50
2441;DHT22;1231;53.988;9.470;2022-10-16T02:48:23;14.20;88.40
2441;DHT22;1231;53.988;9.470;2022-10-16T02:50:54;14.20;88.40
2441;DHT22;1231;53.988;9.470;2022-10-16T02:53:24;14.20;88.40
2441;DHT22;1231;53.988;9.470;2022-10-16T02:55:55;14.10;88.40
2441;DHT22;1231;53.988;9.470;2022-10-16T02:58:25;14.10;88.40
2441;DHT22;1231;53.988;9.470;2022-10-16T03:00:56;14.10;88.40
2441;DHT22;1231;53.988;9.470;2022-10-16T03:03:27;14.10;88.30
2441;DHT22;1231;53.988;9.470;2022-10-16T03:05:57;14.10;88.30
2441;DHT22;1231;53.988;9.470;2022-10-16T03:08:28;14.00;88.30
2441;DHT22;1231;53.988;9.470;2022-10-16T03:10:59;14.00;88.20
2441;DHT22;1231;53.988;9.470;2022-10-16T03:13:30;14.00;88.20
2441;DHT22;1231;53.988;9.470;2022-10-16T03:16:00;13.90;88.20
2441;DHT22;1231;53.988;9.470;2022-10-16T03:18:31;13.90;88.30
2441;DHT22;1231;53.988;9.470;2022-10-16T03:21:02;13.90;88.30
2441;DHT22;1231;53.988;9.470;2022-10-16T03:23:32;13.90;88.30
2441;DHT22;1231;53.988;9.470;2022-10-16T03:26:03;13.80;88.30
2441;DHT22;1231;53.988;9.470;2022-10-16T03:28:33;13.80;88.30
2441;DHT22;1231;53.988;9.470;2022-10-16T03:31:04;13.80;88.20
2441;DHT22;1231;53.988;9.470;2022-10-16T03:33:35;13.80;88.20
2441;DHT22;1231;53.988;9.470;2022-10-16T03:36:05;13.80;88.20
2441;DHT22;1231;53.988;9.470;2022-10-16T03:38:37;13.80;88.20
2441;DHT22;1231;53.988;9.470;2022-10-16T03:41:07;13.80;88.20
2441;DHT22;1231;53.988;9.470;2022-10-16T03:43:38;13.80;88.20
2441;DHT22;1231;53.988;9.470;2022-10-16T03:46:09;13.80;88.10
2441;DHT22;1231;53.988;9.470;2022-10-16T03:48:39;13.80;88.10
2441;DHT22;1231;53.988;9.470;2022-10-16T03:51:10;13.80;88.10
2441;DHT22;1231;53.988;9.470;2022-10-16T03:53:40;13.80;88.00
2441;DHT22;1231;53.988;9.470;2022-10-16T03:56:11;13.80;88.00
2441;DHT22;1231;53.988;9.470;2022-10-16T03:58:41;13.80;88.00
2441;DHT22;1231;53.988;9.470;2022-10-16T04:01:12;13.80;88.00
2441;DHT22;1231;53.988;9.470;2022-10-16T04:03:43;13.80;88.00
2441;DHT22;1231;53.988;9.470;2022-10-16T04:06:13;13.80;88.10
2441;DHT22;1231;53.988;9.470;2022-10-16T04:08:44;13.80;88.10
2441;DHT22;1231;53.988;9.470;2022-10-16T04:11:15;13.90;88.10
2441;DHT22;1231;53.988;9.470;2022-10-16T04:13:45;13.90;88.10
2441;DHT22;1231;53.988;9.470;2022-10-16T04:16:16;13.90;88.00
2441;DHT22;1231;53.988;9.470;2022-10-16T04:18:46;14.00;88.00
2441;DHT22;1231;53.988;9.470;2022-10-16T04:21:17;14.00;87.90
2441;DHT22;1231;53.988;9.470;2022-10-16T04:23:48;14.00;87.90
2441;DHT22;1231;53.988;9.470;2022-10-16T04:26:18;14.00;87.80
2441;DHT22;1231;53.988;9.470;2022-10-16T04:28:49;14.00;87.90
2441;DHT22;1231;53.988;9.470;2022-10-16T04:31:20;14.00;87.80
2441;DHT22;1231;53.988;9.470;2022-10-16T04:33:50;14.10;87.80
2441;DHT22;1231;53.988;9.470;2022-10-16T04:36:21;14.10;87.80
2441;DHT22;1231;53.988;9.470;2022-10-16T04:38:51;14.10;87.70
2441;DHT22;1231;53.988;9.470;2022-10-16T04:41:22;14.10;87.60
2441;DHT22;1231;53.988;9.470;2022-10-16T04:43:52;14.10;87.60
2441;DHT22;1231;53.988;9.470;2022-10-16T04:46:23;14.20;87.60
2441;DHT22;1231;53.988;9.470;2022-10-16T04:48:54;14.20;87.40
2441;DHT22;1231;53.988;9.470;2022-10-16T04:51:24;14.20;87.40
2441;DHT22;1231;53.988;9.470;2022-10-16T04:53:56;14.20;87.30
2441;DHT22;1231;53.988;9.470;2022-10-16T04:56:26;14.20;87.30
2441;DHT22;1231;53.988;9.470;2022-10-16T04:58:57;14.20;87.30
2441;DHT22;1231;53.988;9.470;2022-10-16T05:01:27;14.20;87.30
2441;DHT22;1231;53.988;9.470;2022-10-16T05:03:58;14.20;87.20
2441;DHT22;1231;53.988;9.470;2022-10-16T05:06:28;14.20;87.20
2441;DHT22;1231;53.988;9.470;2022-10-16T05:08:59;14.20;87.00
2441;DHT22;1231;53.988;9.470;2022-10-16T05:11:30;14.20;87.00
2441;DHT22;1231;53.988;9.470;2022-10-16T05:14:00;14.20;86.90
2441;DHT22;1231;53.988;9.470;2022-10-16T05:16:31;14.20;87.00
2441;DHT22;1231;53.988;9.470;2022-10-16T05:19:02;14.20;87.00
2441;DHT22;1231;53.988;9.470;2022-10-16T05:21:32;14.20;86.90
2441;DHT22;1231;53.988;9.470;2022-10-16T05:24:03;14.20;86.80
2441;DHT22;1231;53.988;9.470;2022-10-16T05:26:33;14.20;86.80
2441;DHT22;1231;53.988;9.470;2022-10-16T05:29:04;14.20;86.80
2441;DHT22;1231;53.988;9.470;2022-10-16T05:31:34;14.20;86.80
2441;DHT22;1231;53.988;9.470;2022-10-16T05:34:05;14.20;86.80
2441;DHT22;1231;53.988;9.470;2022-10-16T05:36:36;14.20;86.70
2441;DHT22;1231;53.988;9.470;2022-10-16T05:39:07;14.20;86.70
2441;DHT22;1231;53.988;9.470;2022-10-16T05:41:37;14.20;86.70
2441;DHT22;1231;53.988;9.470;2022-10-16T05:44:08;14.20;86.70
2441;DHT22;1231;53.988;9.470;2022-10-16T05:46:38;14.30;86.80
2441;DHT22;1231;53.988;9.470;2022-10-16T05:49:09;14.30;86.70
2441;DHT22;1231;53.988;9.470;2022-10-16T05:51:39;14.30;86.60
2441;DHT22;1231;53.988;9.470;2022-10-16T05:54:10;14.30;86.60
2441;DHT22;1231;53.988;9.470;2022-10-16T05:56:41;14.30;86.60
2441;DHT22;1231;53.988;9.470;2022-10-16T05:59:11;14.40;86.50
2441;DHT22;1231;53.988;9.470;2022-10-16T06:01:42;14.40;86.50
2441;DHT22;1231;53.988;9.470;2022-10-16T06:04:12;14.40;86.50
2441;DHT22;1231;53.988;9.470;2022-10-16T06:06:43;14.40;86.40
2441;DHT22;1231;53.988;9.470;2022-10-16T06:09:14;14.40;86.40
2441;DHT22;1231;53.988;9.470;2022-10-16T06:11:44;14.40;86.30
2441;DHT22;1231;53.988;9.470;2022-10-16T06:14:15;14.40;86.30
2441;DHT22;1231;53.988;9.470;2022-10-16T06:16:45;14.40;86.20
2441;DHT22;1231;53.988;9.470;2022-10-16T06:19:16;14.40;86.20
2441;DHT22;1231;53.988;9.470;2022-10-16T06:21:47;14.40;86.30
2441;DHT22;1231;53.988;9.470;2022-10-16T06:24:18;14.40;86.20
2441;DHT22;1231;53.988;9.470;2022-10-16T06:26:49;14.40;86.20
2441;DHT22;1231;53.988;9.470;2022-10-16T06:29:19;14.50;86.20
2441;DHT22;1231;53.988;9.470;2022-10-16T06:31:50;14.40;86.10
2441;DHT22;1231;53.988;9.470;2022-10-16T06:34:20;14.50;86.20
2441;DHT22;1231;53.988;9.470;2022-10-16T06:36:51;14.50;86.20
2441;DHT22;1231;53.988;9.470;2022-10-16T06:39:22;14.50;86.20
2441;DHT22;1231;53.988;9.470;2022-10-16T06:41:52;14.50;86.30
2441;DHT22;1231;53.988;9.470;2022-10-16T06:44:23;14.60;86.20
2441;DHT22;1231;53.988;9.470;2022-10-16T06:46:53;14.60;86.20
2441;DHT22;1231;53.988;9.470;2022-10-16T06:49:24;14.70;86.10
2441;DHT22;1231;53.988;9.470;2022-10-16T06:51:54;14.70;86.10
2441;DHT22;1231;53.988;9.470;2022-10-16T06:54:25;14.70;86.20
2441;DHT22;1231;53.988;9.470;2022-10-16T06:56:56;14.70;86.10
2441;DHT22;1231;53.988;9.470;2022-10-16T06:59:27;14.70;86.20
2441;DHT22;1231;53.988;9.470;2022-10-16T07:01:57;14.70;86.30
2441;DHT22;1231;53.988;9.470;2022-10-16T07:04:28;14.70;86.30
2441;DHT22;1231;53.988;9.470;2022-10-16T07:07:00;14.80;86.20
2441;DHT22;1231;53.988;9.470;2022-10-16T07:09:31;14.80;86.20
2441;DHT22;1231;53.988;9.470;2022-10-16T07:12:02;14.80;86.20
2441;DHT22;1231;53.988;9.470;2022-10-16T07:14:32;14.80;86.10
2441;DHT22;1231;53.988;9.470;2022-10-16T07:17:03;14.80;86.10
2441;DHT22;1231;53.988;9.470;2022-10-16T07:19:33;14.80;86.10
2441;DHT22;1231;53.988;9.470;2022-10-16T07:22:04;14.80;86.00
2441;DHT22;1231;53.988;9.470;2022-10-16T07:24:35;14.80;86.10
2441;DHT22;1231;53.988;9.470;2022-10-16T07:27:05;14.90;86.10
2441;DHT22;1231;53.988;9.470;2022-10-16T07:29:36;15.00;86.20
2441;DHT22;1231;53.988;9.470;2022-10-16T07:32:06;15.20;86.30
2441;DHT22;1231;53.988;9.470;2022-10-16T07:34:37;15.30;86.30
2441;DHT22;1231;53.988;9.470;2022-10-16T07:37:07;15.50;85.90
2441;DHT22;1231;53.988;9.470;2022-10-16T07:39:38;15.60;85.50
2441;DHT22;1231;53.988;9.470;2022-10-16T07:42:08;15.60;85.20
2441;DHT22;1231;53.988;9.470;2022-10-16T07:44:39;15.60;85.10
2441;DHT22;1231;53.988;9.470;2022-10-16T07:47:11;15.70;85.00
2441;DHT22;1231;53.988;9.470;2022-10-16T07:49:41;15.60;84.60
2441;DHT22;1231;53.988;9.470;2022-10-16T07:52:12;15.60;84.70
2441;DHT22;1231;53.988;9.470;2022-10-16T07:54:42;15.70;84.60
2441;DHT22;1231;53.988;9.470;2022-10-16T07:57:13;15.70;84.50
2441;DHT22;1231;53.988;9.470;2022-10-16T07:59:49;15.80;84.30
2441;DHT22;1231;53.988;9.470;2022-10-16T08:02:20;15.80;84.30
2441;DHT22;1231;53.988;9.470;2022-10-16T08:04:50;15.80;84.30
2441;DHT22;1231;53.988;9.470;2022-10-16T08:07:21;15.90;84.40
2441;DHT22;1231;53.988;9.470;2022-10-16T08:09:51;16.10;84.50
2441;DHT22;1231;53.988;9.470;2022-10-16T08:12:22;16.20;84.40
2441;DHT22;1231;53.988;9.470;2022-10-16T08:14:53;16.40;84.20
2441;DHT22;1231;53.988;9.470;2022-10-16T08:17:24;16.50;83.70
2441;DHT22;1231;53.988;9.470;2022-10-16T08:19:54;16.60;83.30
2441;DHT22;1231;53.988;9.470;2022-10-16T08:22:27;16.60;83.10
2441;DHT22;1231;53.988;9.470;2022-10-16T08:24:57;16.70;83.00
2441;DHT22;1231;53.988;9.470;2022-10-16T08:27:32;16.80;82.70
2441;DHT22;1231;53.988;9.470;2022-10-16T08:30:03;16.80;82.70
2441;DHT22;1231;53.988;9.470;2022-10-16T08:32:33;16.80;82.60
2441;DHT22;1231;53.988;9.470;2022-10-16T08:35:04;16.90;82.30
2441;DHT22;1231;53.988;9.470;2022-10-16T08:37:35;16.90;82.20
2441;DHT22;1231;53.988;9.470;2022-10-16T08:40:10;16.90;82.10
2441;DHT22;1231;53.988;9.470;2022-10-16T08:42:53;16.90;82.00
2441;DHT22;1231;53.988;9.470;2022-10-16T08:48:29;16.80;81.40
2441;DHT22;1231;53.988;9.470;2022-10-16T08:51:02;16.80;81.60
2441;DHT22;1231;53.988;9.470;2022-10-16T08:53:50;16.70;81.50
2441;DHT22;1231;53.988;9.470;2022-10-16T08:56:22;16.60;81.60
2441;DHT22;1231;53.988;9.470;2022-10-16T08:58:54;16.50;81.90
2441;DHT22;1231;53.988;9.470;2022-10-16T09:01:39;16.60;82.50
2441;DHT22;1231;53.988;9.470;2022-10-16T09:10:11;17.00;82.10
2441;DHT22;1231;53.988;9.470;2022-10-16T09:13:23;17.10;81.90
2441;DHT22;1231;53.988;9.470;2022-10-16T09:18:56;17.30;81.30
2441;DHT22;1231;53.988;9.470;2022-10-16T09:21:29;17.40;81.10
2441;DHT22;1231;53.988;9.470;2022-10-16T09:24:15;17.40;81.00
2441;DHT22;1231;53.988;9.470;2022-10-16T09:26:47;17.50;81.00
2441;DHT22;1231;53.988;9.470;2022-10-16T09:29:20;17.60;80.80
2441;DHT22;1231;53.988;9.470;2022-10-16T09:31:52;17.60;80.40
2441;DHT22;1231;53.988;9.470;2022-10-16T09:34:32;17.60;80.40
2441;DHT22;1231;53.988;9.470;2022-10-16T09:37:05;17.70;80.50
2441;DHT22;1231;53.988;9.470;2022-10-16T09:39:54;17.70;80.40
2441;DHT22;1231;53.988;9.470;2022-10-16T09:42:34;17.80;80.10
2441;DHT22;1231;53.988;9.470;2022-10-16T09:45:20;17.80;79.80
2441;DHT22;1231;53.988;9.470;2022-10-16T09:47:51;17.90;79.70
2441;DHT22;1231;53.988;9.470;2022-10-16T09:50:26;17.90;79.90
2441;DHT22;1231;53.988;9.470;2022-10-16T09:53:11;18.00;79.80
2441;DHT22;1231;53.988;9.470;2022-10-16T09:55:53;18.20;79.60
2441;DHT22;1231;53.988;9.470;2022-10-16T09:58:23;18.30;79.20
2441;DHT22;1231;53.988;9.470;2022-10-16T10:00:54;18.30;79.20
2441;DHT22;1231;53.988;9.470;2022-10-16T10:03:39;18.40;79.30
2441;DHT22;1231;53.988;9.470;2022-10-16T10:06:24;18.40;78.70
2441;DHT22;1231;53.988;9.470;2022-10-16T10:09:13;18.60;78.60
2441;DHT22;1231;53.988;9.470;2022-10-16T10:12:02;18.60;78.40
2441;DHT22;1231;53.988;9.470;2022-10-16T10:14:48;18.60;78.20
2441;DHT22;1231;53.988;9.470;2022-10-16T10:17:22;18.60;77.70
2441;DHT22;1231;53.988;9.470;2022-10-16T10:22:45;18.70;76.70
2441;DHT22;1231;53.988;9.470;2022-10-16T10:25:39;18.80;76.40
2441;DHT22;1231;53.988;9.470;2022-10-16T10:36:12;19.30;72.80
2441;DHT22;1231;53.988;9.470;2022-10-16T10:39:00;19.40;72.40
2441;DHT22;1231;53.988;9.470;2022-10-16T10:42:00;19.50;72.60
2441;DHT22;1231;53.988;9.470;2022-10-16T10:53:24;20.00;72.30
2441;DHT22;1231;53.988;9.470;2022-10-16T10:56:35;20.10;72.00
2441;DHT22;1231;53.988;9.470;2022-10-16T11:01:59;20.30;69.60
2441;DHT22;1231;53.988;9.470;2022-10-16T11:07:28;20.60;69.30
2441;DHT22;1231;53.988;9.470;2022-10-16T11:10:16;20.50;68.50
2441;DHT22;1231;53.988;9.470;2022-10-16T11:12:57;20.20;67.00
2441;DHT22;1231;53.988;9.470;2022-10-16T11:15:35;20.10;67.80
2441;DHT22;1231;53.988;9.470;2022-10-16T11:18:20;20.10;68.50
2441;DHT22;1231;53.988;9.470;2022-10-16T11:20:59;20.10;69.10
2441;DHT22;1231;53.988;9.470;2022-10-16T11:23:48;20.00;68.30
2441;DHT22;1231;53.988;9.470;2022-10-16T11:26:26;19.80;68.10
2441;DHT22;1231;53.988;9.470;2022-10-16T11:28:57;19.80;67.90
2441;DHT22;1231;53.988;9.470;2022-10-16T11:31:38;19.80;68.80
2441;DHT22;1231;53.988;9.470;2022-10-16T11:34:24;19.70;67.90
2441;DHT22;1231;53.988;9.470;2022-10-16T11:37:03;19.70;67.80
2441;DHT22;1231;53.988;9.470;2022-10-16T11:39:37;19.60;67.70
2441;DHT22;1231;53.988;9.470;2022-10-16T11:42:16;19.60;68.50
2441;DHT22;1231;53.988;9.470;2022-10-16T11:53:16;19.70;68.50
2441;DHT22;1231;53.988;9.470;2022-10-16T11:55:45;19.80;68.20
2441;DHT22;1231;53.988;9.470;2022-10-16T11:58:30;19.80;67.90
2441;DHT22;1231;53.988;9.470;2022-10-16T12:04:05;20.00;68.00
2441;DHT22;1231;53.988;9.470;2022-10-16T12:09:24;20.00;66.40
2441;DHT22;1231;53.988;9.470;2022-10-16T12:11:55;19.90;66.90
2441;DHT22;1231;53.988;9.470;2022-10-16T12:14:33;19.70;67.00
2441;DHT22;1231;53.988;9.470;2022-10-16T12:17:34;19.40;67.20
2441;DHT22;1231;53.988;9.470;2022-10-16T12:22:53;19.40;68.30
2441;DHT22;1231;53.988;9.470;2022-10-16T12:25:31;19.50;68.20
2441;DHT22;1231;53.988;9.470;2022-10-16T12:28:17;19.80;68.60
2441;DHT22;1231;53.988;9.470;2022-10-16T12:30:54;20.00;67.80
2441;DHT22;1231;53.988;9.470;2022-10-16T12:33:36;20.10;66.40
2441;DHT22;1231;53.988;9.470;2022-10-16T12:36:30;20.30;66.10
2441;DHT22;1231;53.988;9.470;2022-10-16T12:39:01;20.30;65.50
2441;DHT22;1231;53.988;9.470;2022-10-16T12:41:34;20.40;64.80
2441;DHT22;1231;53.988;9.470;2022-10-16T12:44:24;20.30;64.30
2441;DHT22;1231;53.988;9.470;2022-10-16T12:46:56;20.40;65.50
2441;DHT22;1231;53.988;9.470;2022-10-16T12:49:35;20.40;64.20
2441;DHT22;1231;53.988;9.470;2022-10-16T12:52:36;20.40;64.20
2441;DHT22;1231;53.988;9.470;2022-10-16T12:55:16;20.10;63.60
2441;DHT22;1231;53.988;9.470;2022-10-16T12:58:14;19.90;62.80
2441;DHT22;1231;53.988;9.470;2022-10-16T13:00:56;19.70;63.40
2441;DHT22;1231;53.988;9.470;2022-10-16T13:29:32;19.20;65.40
2441;DHT22;1231;53.988;9.470;2022-10-16T13:32:09;19.20;65.00
2441;DHT22;1231;53.988;9.470;2022-10-16T13:34:45;19.30;64.90
2441;DHT22;1231;53.988;9.470;2022-10-16T13:37:21;19.40;65.20
2441;DHT22;1231;53.988;9.470;2022-10-16T13:40:09;19.40;64.70
2441;DHT22;1231;53.988;9.470;2022-10-16T13:42:42;19.30;63.60
2441;DHT22;1231;53.988;9.470;2022-10-16T13:45:25;19.30;63.40
2441;DHT22;1231;53.988;9.470;2022-10-16T13:48:09;19.30;63.50
2441;DHT22;1231;53.988;9.470;2022-10-16T13:50:42;19.40;63.40
2441;DHT22;1231;53.988;9.470;2022-10-16T13:53:13;19.40;63.70
2441;DHT22;1231;53.988;9.470;2022-10-16T13:55:44;19.40;63.90
2441;DHT22;1231;53.988;9.470;2022-10-16T13:58:15;19.30;64.20
2441;DHT22;1231;53.988;9.470;2022-10-16T14:01:01;19.30;64.20
2441;DHT22;1231;53.988;9.470;2022-10-16T14:03:33;19.20;64.50
2441;DHT22;1231;53.988;9.470;2022-10-16T14:06:12;19.10;64.60
2441;DHT22;1231;53.988;9.470;2022-10-16T14:08:47;19.00;64.70
2441;DHT22;1231;53.988;9.470;2022-10-16T14:11:23;18.90;65.00
2441;DHT22;1231;53.988;9.470;2022-10-16T14:13:55;18.80;65.50
2441;DHT22;1231;53.988;9.470;2022-10-16T14:16:29;18.80;66.00
2441;DHT22;1231;53.988;9.470;2022-10-16T14:19:03;18.80;66.20
2441;DHT22;1231;53.988;9.470;2022-10-16T14:21:35;18.70;66.50
2441;DHT22;1231;53.988;9.470;2022-10-16T14:24:21;18.70;66.40
2441;DHT22;1231;53.988;9.470;2022-10-16T14:26:54;18.80;66.50
2441;DHT22;1231;53.988;9.470;2022-10-16T14:29:28;18.80;66.40
2441;DHT22;1231;53.988;9.470;2022-10-16T14:32:04;18.80;66.60
2441;DHT22;1231;53.988;9.470;2022-10-16T14:34:38;18.80;66.90
2441;DHT22;1231;53.988;9.470;2022-10-16T14:37:30;18.70;67.30
2441;DHT22;1231;53.988;9.470;2022-10-16T14:40:02;18.70;67.80
2441;DHT22;1231;53.988;9.470;2022-10-16T14:42:32;18.70;67.90
2441;DHT22;1231;53.988;9.470;2022-10-16T14:45:08;18.70;68.00
2441;DHT22;1231;53.988;9.470;2022-10-16T14:47:49;18.60;67.90
2441;DHT22;1231;53.988;9.470;2022-10-16T14:50:20;18.50;68.00
2441;DHT22;1231;53.988;9.470;2022-10-16T14:52:51;18.50;68.00
2441;DHT22;1231;53.988;9.470;2022-10-16T14:55:22;18.50;68.40
2441;DHT22;1231;53.988;9.470;2022-10-16T14:57:53;18.40;68.60
2441;DHT22;1231;53.988;9.470;2022-10-16T15:00:24;18.40;69.00
2441;DHT22;1231;53.988;9.470;2022-10-16T15:02:54;18.40;69.30
2441;DHT22;1231;53.988;9.470;2022-10-16T15:05:27;18.50;69.40
2441;DHT22;1231;53.988;9.470;2022-10-16T15:07:58;18.60;69.40
2441;DHT22;1231;53.988;9.470;2022-10-16T15:10:28;18.50;69.20
2441;DHT22;1231;53.988;9.470;2022-10-16T15:13:00;18.40;69.40
2441;DHT22;1231;53.988;9.470;2022-10-16T15:15:37;18.30;69.50
2441;DHT22;1231;53.988;9.470;2022-10-16T15:18:08;18.30;69.60
2441;DHT22;1231;53.988;9.470;2022-10-16T15:20:39;18.20;69.60
2441;DHT22;1231;53.988;9.470;2022-10-16T15:23:18;18.10;69.70
2441;DHT22;1231;53.988;9.470;2022-10-16T15:25:51;17.90;69.60
2441;DHT22;1231;53.988;9.470;2022-10-16T15:28:23;17.80;70.00
2441;DHT22;1231;53.988;9.470;2022-10-16T15:30:55;17.60;70.20
2441;DHT22;1231;53.988;9.470;2022-10-16T15:33:27;17.40;70.90
2441;DHT22;1231;53.988;9.470;2022-10-16T15:36:03;17.40;71.30
2441;DHT22;1231;53.988;9.470;2022-10-16T15:38:34;17.30;71.60
2441;DHT22;1231;53.988;9.470;2022-10-16T15:41:05;17.20;71.80
2441;DHT22;1231;53.988;9.470;2022-10-16T15:43:36;17.10;72.00
2441;DHT22;1231;53.988;9.470;2022-10-16T15:46:11;17.00;72.20
2441;DHT22;1231;53.988;9.470;2022-10-16T15:48:41;17.00;72.50
2441;DHT22;1231;53.988;9.470;2022-10-16T15:51:13;16.90;72.80
2441;DHT22;1231;53.988;9.470;2022-10-16T15:53:45;16.80;73.20
2441;DHT22;1231;53.988;9.470;2022-10-16T15:56:17;16.70;73.40
2441;DHT22;1231;53.988;9.470;2022-10-16T15:58:47;16.60;73.70
2441;DHT22;1231;53.988;9.470;2022-10-16T16:01:18;16.50;73.90
2441;DHT22;1231;53.988;9.470;2022-10-16T16:03:53;16.40;74.30
2441;DHT22;1231;53.988;9.470;2022-10-16T16:06:24;16.30;74.60
2441;DHT22;1231;53.988;9.470;2022-10-16T16:08:54;16.20;74.80
2441;DHT22;1231;53.988;9.470;2022-10-16T16:11:25;16.20;75.00
2441;DHT22;1231;53.988;9.470;2022-10-16T16:13:56;16.10;75.20
2441;DHT22;1231;53.988;9.470;2022-10-16T16:16:27;16.00;75.50
2441;DHT22;1231;53.988;9.470;2022-10-16T16:18:57;15.90;75.60
2441;DHT22;1231;53.988;9.470;2022-10-16T16:21:28;15.90;75.80
2441;DHT22;1231;53.988;9.470;2022-10-16T16:23:59;15.80;75.90
2441;DHT22;1231;53.988;9.470;2022-10-16T16:26:29;15.80;76.00
2441;DHT22;1231;53.988;9.470;2022-10-16T16:29:06;15.70;76.20
2441;DHT22;1231;53.988;9.470;2022-10-16T16:31:37;15.70;76.40
2441;DHT22;1231;53.988;9.470;2022-10-16T16:34:08;15.60;76.50
2441;DHT22;1231;53.988;9.470;2022-10-16T16:36:39;15.60;76.60
2441;DHT22;1231;53.988;9.470;2022-10-16T16:39:10;15.50;76.70
2441;DHT22;1231;53.988;9.470;2022-10-16T16:41:41;15.50;76.80
2441;DHT22;1231;53.988;9.470;2022-10-16T16:44:12;15.40;76.90
2441;DHT22;1231;53.988;9.470;2022-10-16T16:46:44;15.40;76.90
2441;DHT22;1231;53.988;9.470;2022-10-16T16:49:14;15.30;77.00
2441;DHT22;1231;53.988;9.470;2022-10-16T16:51:45;15.30;77.10
2441;DHT22;1231;53.988;9.470;2022-10-16T16:54:16;15.20;77.20
2441;DHT22;1231;53.988;9.470;2022-10-16T16:56:47;15.20;77.40
2441;DHT22;1231;53.988;9.470;2022-10-16T16:59:19;15.10;77.40
2441;DHT22;1231;53.988;9.470;2022-10-16T17:01:50;15.10;77.50
2441;DHT22;1231;53.988;9.470;2022-10-16T17:04:21;15.10;77.50
2441;DHT22;1231;53.988;9.470;2022-10-16T17:06:53;15.00;77.60
2441;DHT22;1231;53.988;9.470;2022-10-16T17:09:24;15.00;77.70
2441;DHT22;1231;53.988;9.470;2022-10-16T17:11:55;15.00;77.80
2441;DHT22;1231;53.988;9.470;2022-10-16T17:14:26;14.90;77.80
2441;DHT22;1231;53.988;9.470;2022-10-16T17:16:56;14.90;77.80
2441;DHT22;1231;53.988;9.470;2022-10-16T17:19:27;14.80;77.90
2441;DHT22;1231;53.988;9.470;2022-10-16T17:21:57;14.80;78.10
2441;DHT22;1231;53.988;9.470;2022-10-16T17:24:28;14.70;78.10
2441;DHT22;1231;53.988;9.470;2022-10-16T17:26:59;14.60;78.20
2441;DHT22;1231;53.988;9.470;2022-10-16T17:29:29;14.60;78.30
2441;DHT22;1231;53.988;9.470;2022-10-16T17:32:00;14.50;78.40
2441;DHT22;1231;53.988;9.470;2022-10-16T17:34:30;14.40;78.50
2441;DHT22;1231;53.988;9.470;2022-10-16T17:37:01;14.40;78.70
2441;DHT22;1231;53.988;9.470;2022-10-16T17:39:31;14.30;78.80
2441;DHT22;1231;53.988;9.470;2022-10-16T17:42:02;14.30;78.90
2441;DHT22;1231;53.988;9.470;2022-10-16T17:44:32;14.20;79.00
2441;DHT22;1231;53.988;9.470;2022-10-16T17:47:03;14.20;79.20
2441;DHT22;1231;53.988;9.470;2022-10-16T17:49:34;14.10;79.30
2441;DHT22;1231;53.988;9.470;2022-10-16T17:52:04;14.10;79.50
2441;DHT22;1231;53.988;9.470;2022-10-16T17:54:35;14.00;79.70
2441;DHT22;1231;53.988;9.470;2022-10-16T17:57:05;14.00;80.00
2441;DHT22;1231;53.988;9.470;2022-10-16T17:59:36;14.00;80.10
2441;DHT22;1231;53.988;9.470;2022-10-16T18:02:09;13.90;80.30
2441;DHT22;1231;53.988;9.470;2022-10-16T18:04:39;13.90;80.50
2441;DHT22;1231;53.988;9.470;2022-10-16T18:07:11;13.90;80.60
2441;DHT22;1231;53.988;9.470;2022-10-16T18:09:42;13.80;80.70
2441;DHT22;1231;53.988;9.470;2022-10-16T18:12:12;13.80;80.80
2441;DHT22;1231;53.988;9.470;2022-10-16T18:14:43;13.80;80.80